Hamilton, New York
Current Conditions -  °F | °C
As of 11:53 AM on Friday 28 Nov 2014 (Local Time) from KRME Reporting Station
Unknown Precip Unknown Precip  
Wind Chill: -11°   Ceiling: 3000
Heat Index: -3°   Visibility: 10mi
Dew Point: -7°   Wind: 20mph
Humidity: 75%   Direction: 270°W
Pressure: 30.17"   Gusts: 25mph
Location:  42.83°N, 75.54°W
Report Text: KRME 281653Z AUTO 27017G22KT 10SM UP FEW019 BKN030 OVC041 M03/M07 A3017 RMK AO2 UPB25SNE16 SLP221 P0001 T10331072
Loading
Personal Weather Stations






























Interactive Weather Map New forecast layout! Learn more

10-Day Weather Forecast

Advertisements
Track Severe Weather on mobile